Time;durP1;ratioP1;P1;durP2;ratioP2;P2;SDS_P1;SDS_P2;PMS_P1;PMS_P2;Temp;Humidity;BMP_temperature;BMP_pressure;BME280_temperature;BME280_humidity;BME280_pressure;Samples;Min_cycle;Max_cycle;Signal;HPM_P1;HPM_P2
2023/08/29 00:01:18;;;;;;;;;10.00;10.00;;;;;;;;4755867;29;44777;-94
2023/08/29 00:04:08;;;;;;;;;8.33;8.33;;;;;;;;4751595;29;45262;-95
2023/08/29 00:06:43;;;;;;;;;7.00;7.00;;;;;;;;4756190;29;44754;-94
2023/08/29 00:09:08;;;;;;;;;8.00;8.00;;;;;;;;4777864;29;28512;-94
2023/08/29 00:11:36;;;;;;;;;8.00;8.00;;;;;;;;4788939;29;28478;-94
2023/08/29 00:14:09;;;;;;;;;8.00;8.00;;;;;;;;4775184;29;28393;-94
2023/08/29 00:16:42;;;;;;;;;7.00;7.00;;;;;;;;4773086;29;28361;-94
2023/08/29 00:19:10;;;;;;;;;7.67;7.67;;;;;;;;4753842;29;45373;-94
2023/08/29 00:22:05;;;;;;;;;7.00;7.00;;;;;;;;4754901;29;45430;-94
2023/08/29 00:24:31;;;;;;;;;7.67;7.67;;;;;;;;4769020;29;45472;-93
2023/08/29 00:27:06;;;;;;;;;;;;;;;;;;;;;
2023/08/29 00:29:32;;;;;;;;;11.33;11.33;;;;;;;;4768779;29;75123;-94
2023/08/29 00:32:03;;;;;;;;;7.67;7.67;;;;;;;;4755923;29;28338;-94
2023/08/29 00:34:31;;;;;;;;;11.33;11.33;;;;;;;;4772906;29;28527;-94
2023/08/29 00:37:06;;;;;;;;;;;;;;;;;;;;;
2023/08/29 00:39:57;;;;;;;;;8.67;8.67;;;;;;;;4783413;29;57211;-94
2023/08/29 00:45:17;;;;;;;;;11.33;11.33;;;;;;;;4772564;29;28320;-94
2023/08/29 00:47:48;;;;;;;;;10.67;10.67;;;;;;;;4758311;29;28501;-94
2023/08/29 00:50:31;;;;;;;;;10.33;10.33;;;;;;;;4755056;29;42923;-94
2023/08/29 00:53:13;;;;;;;;;8.67;8.00;;;;;;;;4755691;29;28997;-94
2023/08/29 00:55:57;;;;;;;;;;;;;;;;;;;;;
2023/08/29 00:58:44;;;;;;;;;;;;;;;;;;;;;
2023/08/29 01:01:12;;;;;;;;;7.00;7.00;;;;;;;;4774938;29;57338;-94
2023/08/29 01:03:42;;;;;;;;;8.67;8.67;;;;;;;;4767555;29;28837;-93
2023/08/29 01:06:21;;;;;;;;;;;;;;;;;;;;;
2023/08/29 01:08:56;;;;;;;;;9.67;9.67;;;;;;;;4773495;29;51830;-94
2023/08/29 01:11:40;;;;;;;;;;;;;;;;;;;;;
2023/08/29 01:14:09;;;;;;;;;11.67;11.67;;;;;;;;4789141;29;57190;-94
2023/08/29 01:16:57;;;;;;;;;12.67;12.67;;;;;;;;4766888;29;28363;-94
2023/08/29 01:19:34;;;;;;;;;11.33;11.33;;;;;;;;4763532;29;28503;-93
2023/08/29 01:22:13;;;;;;;;;13.67;13.67;;;;;;;;4754483;29;45374;-93
2023/08/29 01:24:53;;;;;;;;;11.33;11.33;;;;;;;;4764324;29;45264;-94
2023/08/29 01:27:50;;;;;;;;;12.67;12.67;;;;;;;;4764479;29;28443;-93
2023/08/29 01:30:20;;;;;;;;;;;;;;;;;;;;;
2023/08/29 01:32:49;;;;;;;;;12.00;12.00;;;;;;;;4772316;29;56954;-94
2023/08/29 01:38:17;;;;;;;;;;;;;;;;;;;;;
2023/08/29 01:40:53;;;;;;;;;10.33;10.33;;;;;;;;4770913;29;51861;-94
2023/08/29 01:43:39;;;;;;;;;11.67;11.67;;;;;;;;4755125;29;35992;-94
2023/08/29 01:46:06;;;;;;;;;15.33;15.33;;;;;;;;4786858;29;28337;-94
2023/08/29 01:48:31;;;;;;;;;13.33;13.33;;;;;;;;4773057;29;42111;-94
2023/08/29 01:50:59;;;;;;;;;19.00;19.00;;;;;;;;4773299;29;45626;-94
2023/08/29 01:53:30;;;;;;;;;19.67;19.67;;;;;;;;4789864;29;28397;-93
2023/08/29 01:55:58;;;;;;;;;17.33;17.33;;;;;;;;4757585;29;30246;-94
2023/08/29 01:58:32;;;;;;;;;15.33;15.33;;;;;;;;4763833;29;28498;-94
2023/08/29 02:01:01;;;;;;;;;14.33;14.33;;;;;;;;4754923;29;28374;-94
2023/08/29 02:03:27;;;;;;;;;18.33;18.33;;;;;;;;4773286;29;30001;-93
2023/08/29 02:05:56;;;;;;;;;17.33;17.33;;;;;;;;4771726;29;28915;-93
2023/08/29 02:08:23;;;;;;;;;20.33;20.33;;;;;;;;4773270;29;28436;-93
2023/08/29 02:11:12;;;;;;;;;19.00;19.00;;;;;;;;4773334;29;28643;-93
2023/08/29 02:13:47;;;;;;;;;;;;;;;;;;;;;
2023/08/29 02:16:15;;;;;;;;;26.25;26.25;;;;;;;;4788103;29;56880;-94
2023/08/29 02:18:47;;;;;;;;;19.33;19.33;;;;;;;;4769407;29;28585;-93
2023/08/29 02:21:20;;;;;;;;;18.67;18.67;;;;;;;;4758233;29;28453;-93
2023/08/29 02:26:36;;;;;;;;;24.67;24.67;;;;;;;;4786485;29;28508;-94
2023/08/29 02:29:01;;;;;;;;;16.33;16.33;;;;;;;;4758304;29;28432;-93
2023/08/29 02:31:29;;;;;;;;;21.33;21.33;;;;;;;;4758094;29;28361;-93
2023/08/29 02:34:04;;;;;;;;;21.33;21.33;;;;;;;;4758120;29;30400;-94
2023/08/29 02:36:34;;;;;;;;;16.33;16.33;;;;;;;;4777026;29;29271;-94
2023/08/29 02:39:00;;;;;;;;;22.33;20.00;;;;;;;;4791700;29;38246;-94
2023/08/29 02:41:25;;;;;;;;;27.00;27.00;;;;;;;;4775875;29;28502;-93
2023/08/29 02:43:50;;;;;;;;;22.33;21.67;;;;;;;;4764156;29;29602;-94
2023/08/29 02:46:16;;;;;;;;;20.67;20.67;;;;;;;;4775797;29;28476;-93
2023/08/29 02:48:44;;;;;;;;;20.33;20.33;;;;;;;;4775931;29;28431;-94
2023/08/29 02:51:09;;;;;;;;;25.00;25.00;;;;;;;;4759979;29;28262;-93
2023/08/29 02:53:42;;;;;;;;;24.00;24.00;;;;;;;;4757809;29;30025;-95
2023/08/29 02:56:15;;;;;;;;;21.50;21.00;;;;;;;;4770212;29;28858;-93
2023/08/29 02:58:50;;;;;;;;;20.33;20.00;;;;;;;;4771169;29;45420;-93
2023/08/29 03:01:15;;;;;;;;;28.25;28.25;;;;;;;;4779678;29;42143;-94
2023/08/29 03:03:51;;;;;;;;;;;;;;;;;;;;;
2023/08/29 03:06:16;;;;;;;;;17.33;17.33;;;;;;;;4784724;29;56955;-94
2023/08/29 03:09:03;;;;;;;;;23.00;23.00;;;;;;;;4750638;29;42357;-94
2023/08/29 03:11:47;;;;;;;;;;;;;;;;;;;;;
2023/08/29 03:14:22;;;;;;;;;20.33;20.33;;;;;;;;4761717;29;58005;-93
2023/08/29 03:16:50;;;;;;;;;19.33;19.33;;;;;;;;4756318;29;29363;-94
2023/08/29 03:19:18;;;;;;;;;19.67;19.67;;;;;;;;4749545;30;28456;-94
2023/08/29 03:21:50;;;;;;;;;24.25;24.25;;;;;;;;4739321;30;28619;-93
2023/08/29 03:24:25;;;;;;;;;19.00;19.00;;;;;;;;4765564;29;42304;-93
2023/08/29 03:26:55;;;;;;;;;17.00;16.33;;;;;;;;4750016;30;42345;-94
2023/08/29 03:29:20;;;;;;;;;15.67;15.67;;;;;;;;4725657;30;45490;-93
2023/08/29 03:31:51;;;;;;;;;17.67;17.67;;;;;;;;4741157;30;45444;-94
2023/08/29 03:34:16;;;;;;;;;20.00;20.00;;;;;;;;4756765;29;46350;-94
2023/08/29 03:36:44;;;;;;;;;21.67;21.67;;;;;;;;4736599;30;45233;-94
2023/08/29 03:39:09;;;;;;;;;27.75;27.75;;;;;;;;4738923;30;37010;-94
2023/08/29 03:41:36;;;;;;;;;26.00;26.00;;;;;;;;4739355;30;28465;-94
2023/08/29 03:44:12;;;;;;;;;29.75;29.75;;;;;;;;4739340;30;29811;-93
2023/08/29 03:46:39;;;;;;;;;22.50;22.50;;;;;;;;4733248;29;45311;-94
2023/08/29 03:49:12;;;;;;;;;21.00;21.00;;;;;;;;4757442;29;28458;-94
2023/08/29 03:51:40;;;;;;;;;16.67;16.67;;;;;;;;4765722;29;28259;-94
2023/08/29 03:54:18;;;;;;;;;;;;;;;;;;;;;
2023/08/29 03:56:48;;;;;;;;;17.33;17.33;;;;;;;;4743901;29;55827;-94
2023/08/29 03:59:22;;;;;;;;;23.50;22.25;;;;;;;;4751746;29;45244;-94
2023/08/29 04:01:49;;;;;;;;;19.25;19.25;;;;;;;;4747098;30;28323;-94
2023/08/29 04:04:22;;;;;;;;;17.67;17.67;;;;;;;;4755057;30;28569;-94
2023/08/29 04:06:47;;;;;;;;;14.67;14.67;;;;;;;;4738511;30;29410;-94
2023/08/29 04:09:14;;;;;;;;;15.00;15.00;;;;;;;;4752907;29;28347;-94
2023/08/29 04:11:42;;;;;;;;;20.67;20.67;;;;;;;;4784749;29;28503;-93
2023/08/29 04:14:14;;;;;;;;;14.67;14.67;;;;;;;;4759776;29;29955;-94
2023/08/29 04:16:48;;;;;;;;;16.67;16.67;;;;;;;;4756054;29;28542;-93
2023/08/29 04:19:16;;;;;;;;;13.00;13.00;;;;;;;;4774685;29;28565;-94
2023/08/29 04:21:41;;;;;;;;;16.33;16.33;;;;;;;;4760236;29;28328;-94
2023/08/29 04:24:10;;;;;;;;;16.33;16.33;;;;;;;;4763697;29;29979;-94
2023/08/29 04:26:35;;;;;;;;;16.33;16.33;;;;;;;;4760267;29;29492;-94
2023/08/29 04:29:03;;;;;;;;;15.67;15.67;;;;;;;;4756619;29;28401;-94
2023/08/29 04:31:42;;;;;;;;;18.33;18.33;;;;;;;;4756484;29;28291;-94
2023/08/29 04:34:30;;;;;;;;;17.67;17.67;;;;;;;;4756336;29;29880;-93
2023/08/29 04:36:58;;;;;;;;;12.67;12.67;;;;;;;;4772637;29;28544;-94
2023/08/29 04:39:29;;;;;;;;;14.00;14.00;;;;;;;;4750665;29;45263;-94
2023/08/29 04:42:07;;;;;;;;;;;;;;;;;;;;;
2023/08/29 04:44:36;;;;;;;;;13.33;13.33;;;;;;;;4770275;29;58480;-93
2023/08/29 04:47:06;;;;;;;;;13.67;13.67;;;;;;;;4784132;29;28384;-94
2023/08/29 04:49:34;;;;;;;;;16.33;16.33;;;;;;;;4774068;29;28541;-94
2023/08/29 04:52:02;;;;;;;;;16.67;15.00;;;;;;;;4773921;29;28497;-94
2023/08/29 04:54:30;;;;;;;;;18.33;18.33;;;;;;;;4773802;29;30751;-94
2023/08/29 04:57:08;;;;;;;;;;;;;;;;;;;;;
2023/08/29 04:59:46;;;;;;;;;12.67;12.67;;;;;;;;4771283;29;54369;-93
2023/08/29 05:02:11;;;;;;;;;12.00;11.33;;;;;;;;4756186;29;28422;-94
2023/08/29 05:04:39;;;;;;;;;10.00;10.00;;;;;;;;4772389;29;28291;-93
2023/08/29 05:07:06;;;;;;;;;11.67;11.67;;;;;;;;4755345;29;28428;-93
2023/08/29 05:09:49;;;;;;;;;15.67;15.67;;;;;;;;4755761;29;28412;-93
2023/08/29 05:12:16;;;;;;;;;15.00;15.00;;;;;;;;4767985;29;28497;-94
2023/08/29 05:14:41;;;;;;;;;7.67;7.67;;;;;;;;4756033;29;29864;-93
2023/08/29 05:17:10;;;;;;;;;11.67;11.67;;;;;;;;4767529;29;28520;-93
2023/08/29 05:19:38;;;;;;;;;10.33;10.33;;;;;;;;4764278;29;28406;-94
2023/08/29 05:22:06;;;;;;;;;12.33;11.33;;;;;;;;4775638;29;28652;-93
2023/08/29 05:24:31;;;;;;;;;11.33;11.33;;;;;;;;4769323;29;30148;-94
2023/08/29 05:29:44;;;;;;;;;10.67;10.67;;;;;;;;4770681;29;28589;-93
2023/08/29 05:32:20;;;;;;;;;;;;;;;;;;;;;
2023/08/29 05:34:51;;;;;;;;;10.33;10.33;;;;;;;;4771003;29;58189;-94
2023/08/29 05:37:25;;;;;;;;;10.67;10.67;;;;;;;;4755467;29;28507;-94
2023/08/29 05:40:07;;;;;;;;;8.00;8.00;;;;;;;;4761622;29;28527;-94
2023/08/29 05:42:41;;;;;;;;;9.00;9.00;;;;;;;;4772941;29;28496;-94
2023/08/29 05:45:15;;;;;;;;;11.00;11.00;;;;;;;;4771508;29;30141;-94
2023/08/29 05:47:42;;;;;;;;;12.33;12.33;;;;;;;;4772249;29;28976;-94
2023/08/29 05:50:10;;;;;;;;;13.00;13.00;;;;;;;;4775253;29;28503;-94
2023/08/29 05:52:38;;;;;;;;;11.00;11.00;;;;;;;;4792978;29;28511;-94
2023/08/29 05:57:51;;;;;;;;;10.33;10.33;;;;;;;;4792673;29;28325;-94
2023/08/29 06:00:26;;;;;;;;;13.00;13.00;;;;;;;;4783059;29;28267;-94
2023/08/29 06:02:56;;;;;;;;;11.00;11.00;;;;;;;;4776607;29;28402;-94
2023/08/29 06:05:26;;;;;;;;;15.33;15.33;;;;;;;;4774090;29;30223;-93
2023/08/29 06:08:06;;;;;;;;;15.67;15.67;;;;;;;;4761275;29;28579;-94
2023/08/29 06:10:31;;;;;;;;;18.33;18.33;;;;;;;;4786917;29;28452;-94
2023/08/29 06:13:05;;;;;;;;;20.25;20.25;;;;;;;;4776169;29;28336;-94
2023/08/29 06:15:31;;;;;;;;;20.00;20.00;;;;;;;;4762572;29;31143;-94
2023/08/29 06:18:00;;;;;;;;;27.50;27.50;;;;;;;;4766766;29;28617;-94
2023/08/29 06:20:25;;;;;;;;;19.00;19.00;;;;;;;;4785594;29;28641;-94
2023/08/29 06:22:58;;;;;;;;;14.33;14.33;;;;;;;;4759510;29;28279;-93
2023/08/29 06:25:38;;;;;;;;;12.00;12.00;;;;;;;;4785200;29;28393;-94
2023/08/29 06:28:15;;;;;;;;;18.67;18.33;;;;;;;;4774412;29;28412;-94
2023/08/29 06:30:51;;;;;;;;;11.67;11.67;;;;;;;;4778493;29;28638;-94
2023/08/29 06:33:45;;;;;;;;;;;;;;;;;;;;;
2023/08/29 06:36:18;;;;;;;;;14.00;14.00;;;;;;;;4777336;29;58038;-94
2023/08/29 06:39:13;;;;;;;;;14.33;14.33;;;;;;;;4775302;29;28419;-94
2023/08/29 06:41:54;;;;;;;;;;;;;;;;;;;;;
2023/08/29 06:44:42;;;;;;;;;18.67;18.67;;;;;;;;4780518;29;51311;-94
2023/08/29 06:56:04;;;;;;;;;14.00;13.67;;;;;;;;4758077;29;28612;-93
2023/08/29 07:01:53;;;;;;;;;12.67;12.67;;;;;;;;4757141;29;28350;-94
2023/08/29 07:07:40;;;;;;;;;;;;;;;;;;;;;
2023/08/29 07:16:34;;;;;;;;;;;;;;;;;;;;;
2023/08/29 07:22:02;;;;;;;;;11.67;10.33;;;;;;;;4679233;30;29197;-91
2023/08/29 07:24:27;;;;;;;;;7.67;7.67;;;;;;;;4756169;29;28440;-91
2023/08/29 07:26:52;;;;;;;;;7.67;7.67;;;;;;;;4791885;29;28484;-91
2023/08/29 07:29:19;;;;;;;;;8.00;8.00;;;;;;;;4789966;29;28248;-91
2023/08/29 07:31:45;;;;;;;;;7.67;7.67;;;;;;;;4789896;29;28308;-92
2023/08/29 07:34:15;;;;;;;;;4.67;4.67;;;;;;;;4773608;29;28350;-93
2023/08/29 07:36:40;;;;;;;;;4.67;4.67;;;;;;;;4781827;29;28487;-93
2023/08/29 07:39:06;;;;;;;;;4.00;4.00;;;;;;;;4775746;29;28573;-95
2023/08/29 07:41:34;;;;;;;;;6.33;5.33;;;;;;;;4773694;29;28507;-96
2023/08/29 07:43:59;;;;;;;;;7.33;4.67;;;;;;;;4762259;29;47064;-95
2023/08/29 07:46:27;;;;;;;;;7.00;5.67;;;;;;;;4755979;29;45204;-96
2023/08/29 07:49:34;;;;;;;;;;;;;;;;;;;;;
2023/08/29 07:58:35;;;;;;;;;5.00;4.00;;;;;;;;4604775;30;44602;-95
2023/08/29 08:01:02;;;;;;;;;5.00;5.00;;;;;;;;4607638;30;28503;-96
2023/08/29 08:03:27;;;;;;;;;5.33;5.33;;;;;;;;4650150;30;29158;-96
2023/08/29 08:05:52;;;;;;;;;4.33;4.33;;;;;;;;4769221;29;28584;-96
2023/08/29 08:08:17;;;;;;;;;4.00;4.00;;;;;;;;4773197;29;28361;-95
2023/08/29 08:10:43;;;;;;;;;3.67;3.67;;;;;;;;4768477;29;44690;-96
2023/08/29 08:13:08;;;;;;;;;5.33;4.33;;;;;;;;4772690;29;44737;-95
2023/08/29 08:15:33;;;;;;;;;4.00;4.00;;;;;;;;4790196;29;28360;-94
2023/08/29 08:17:58;;;;;;;;;4.33;4.33;;;;;;;;4786102;29;28591;-94
2023/08/29 08:20:24;;;;;;;;;2.00;2.00;;;;;;;;4779973;29;28508;-94
2023/08/29 08:22:49;;;;;;;;;4.00;4.00;;;;;;;;4756544;29;28487;-95
2023/08/29 08:25:14;;;;;;;;;4.00;4.00;;;;;;;;4764037;29;28587;-95
2023/08/29 08:27:42;;;;;;;;;3.00;3.00;;;;;;;;4771566;29;38377;-94
2023/08/29 08:30:11;;;;;;;;;4.00;4.00;;;;;;;;4767577;29;44691;-94
2023/08/29 08:32:36;;;;;;;;;4.00;4.00;;;;;;;;4757494;29;29810;-95
2023/08/29 08:35:04;;;;;;;;;5.00;5.00;;;;;;;;4790420;29;44534;-94
2023/08/29 08:37:30;;;;;;;;;4.67;4.67;;;;;;;;4784099;29;28372;-94
2023/08/29 08:39:55;;;;;;;;;5.00;5.00;;;;;;;;4772637;29;28235;-95
2023/08/29 08:42:20;;;;;;;;;4.00;4.00;;;;;;;;4772860;29;28374;-95
2023/08/29 08:44:46;;;;;;;;;2.00;2.00;;;;;;;;4773182;29;28535;-94
2023/08/29 08:47:12;;;;;;;;;3.67;3.67;;;;;;;;4775040;29;28350;-94
2023/08/29 08:49:38;;;;;;;;;4.00;4.00;;;;;;;;4780239;29;28483;-94
2023/08/29 08:52:03;;;;;;;;;5.00;5.00;;;;;;;;4775138;29;28297;-94
2023/08/29 08:54:29;;;;;;;;;1.67;1.67;;;;;;;;4772760;29;28339;-94
2023/08/29 08:56:57;;;;;;;;;3.67;3.67;;;;;;;;4774004;29;28246;-95
2023/08/29 08:59:23;;;;;;;;;5.33;5.33;;;;;;;;4771619;29;28762;-94
2023/08/29 09:01:48;;;;;;;;;5.00;5.00;;;;;;;;4759173;29;28527;-94
2023/08/29 09:04:14;;;;;;;;;4.67;4.67;;;;;;;;4774933;29;28399;-94
2023/08/29 09:06:39;;;;;;;;;8.33;8.33;;;;;;;;4776578;29;38409;-94
2023/08/29 09:09:17;;;;;;;;;6.00;6.00;;;;;;;;4765566;29;28509;-94
2023/08/29 09:11:43;;;;;;;;;6.00;4.33;;;;;;;;4769536;29;29313;-94
2023/08/29 09:14:08;;;;;;;;;3.67;3.67;;;;;;;;4771156;29;28477;-94
2023/08/29 09:16:37;;;;;;;;;3.00;3.00;;;;;;;;4770743;29;28243;-94
2023/08/29 09:19:05;;;;;;;;;2.33;2.33;;;;;;;;4773988;29;28591;-94
2023/08/29 09:21:31;;;;;;;;;7.33;7.33;;;;;;;;4770733;29;28645;-94
2023/08/29 09:23:57;;;;;;;;;4.00;4.00;;;;;;;;4758667;29;28476;-94
2023/08/29 09:26:29;;;;;;;;;3.33;3.33;;;;;;;;4778093;29;28535;-94
2023/08/29 09:28:54;;;;;;;;;4.67;4.67;;;;;;;;4731397;29;862922;-94
2023/08/29 09:31:20;;;;;;;;;3.00;3.00;;;;;;;;4770881;29;29696;-94
2023/08/29 09:33:47;;;;;;;;;4.00;4.00;;;;;;;;4791539;29;28431;-94
2023/08/29 09:36:12;;;;;;;;;2.67;2.67;;;;;;;;4774986;29;28571;-94
2023/08/29 09:38:40;;;;;;;;;3.00;3.00;;;;;;;;4790458;29;38924;-95
2023/08/29 09:41:11;;;;;;;;;3.00;3.00;;;;;;;;4790709;29;45402;-94
2023/08/29 09:43:45;;;;;;;;;2.00;2.00;;;;;;;;4767439;29;45430;-95
2023/08/29 09:46:10;;;;;;;;;3.00;3.00;;;;;;;;4776747;29;45304;-94
2023/08/29 09:48:53;;;;;;;;;2.00;2.00;;;;;;;;4786238;29;28581;-94
2023/08/29 09:51:18;;;;;;;;;3.00;3.00;;;;;;;;4779274;29;45517;-94
2023/08/29 09:53:43;;;;;;;;;2.00;2.00;;;;;;;;4775020;29;28403;-93
2023/08/29 09:56:09;;;;;;;;;3.00;3.00;;;;;;;;4755698;29;45426;-94
2023/08/29 09:58:37;;;;;;;;;2.00;2.00;;;;;;;;4782345;29;28420;-94
2023/08/29 10:01:04;;;;;;;;;1.67;1.67;;;;;;;;4784845;29;29407;-94
2023/08/29 10:03:30;;;;;;;;;3.00;3.00;;;;;;;;4765467;29;45220;-94
2023/08/29 10:05:56;;;;;;;;;2.00;2.00;;;;;;;;4773027;29;45421;-94
2023/08/29 10:08:26;;;;;;;;;1.50;1.50;;;;;;;;4770983;29;45238;-94
2023/08/29 10:10:55;;;;;;;;;2.00;2.00;;;;;;;;4779803;29;46607;-94
2023/08/29 10:13:21;;;;;;;;;2.67;2.67;;;;;;;;4791661;29;42875;-94
2023/08/29 10:15:47;;;;;;;;;3.67;3.67;;;;;;;;4773389;29;45246;-94
2023/08/29 10:18:13;;;;;;;;;2.33;2.33;;;;;;;;4771352;29;36246;-94
2023/08/29 10:20:43;;;;;;;;;1.00;1.00;;;;;;;;4779531;29;35355;-94
2023/08/29 10:23:09;;;;;;;;;2.00;2.00;;;;;;;;4786935;29;38870;-95
2023/08/29 10:25:39;;;;;;;;;2.00;2.00;;;;;;;;4782016;29;38585;-95
2023/08/29 10:28:06;;;;;;;;;2.33;2.33;;;;;;;;4760605;29;42948;-94
2023/08/29 10:30:31;;;;;;;;;1.67;1.67;;;;;;;;4782768;29;45385;-95
2023/08/29 10:32:57;;;;;;;;;1.33;1.33;;;;;;;;4777696;29;45422;-95
2023/08/29 10:35:22;;;;;;;;;2.00;2.00;;;;;;;;4782007;29;45411;-95
2023/08/29 10:37:54;;;;;;;;;2.33;2.33;;;;;;;;4764874;29;44920;-95
2023/08/29 10:40:20;;;;;;;;;4.00;4.00;;;;;;;;4787430;29;45330;-95
2023/08/29 10:42:53;;;;;;;;;3.00;3.00;;;;;;;;4771516;29;45334;-95
2023/08/29 10:45:21;;;;;;;;;3.67;3.67;;;;;;;;4775099;29;28530;-95
2023/08/29 10:47:47;;;;;;;;;3.33;3.33;;;;;;;;4772283;29;45476;-94
2023/08/29 10:50:16;;;;;;;;;5.00;5.00;;;;;;;;4771471;29;45858;-94
2023/08/29 10:52:41;;;;;;;;;6.00;6.00;;;;;;;;4774613;29;28498;-94
2023/08/29 10:55:32;;;;;;;;;5.00;5.00;;;;;;;;4780791;29;45396;-94
2023/08/29 10:58:00;;;;;;;;;3.00;3.00;;;;;;;;4776665;29;44758;-95
2023/08/29 11:00:35;;;;;;;;;2.67;2.67;;;;;;;;4781854;29;45180;-94
2023/08/29 11:03:01;;;;;;;;;1.00;1.00;;;;;;;;4778068;29;45473;-95
2023/08/29 11:05:27;;;;;;;;;2.00;2.00;;;;;;;;4766106;29;45229;-94
2023/08/29 11:07:53;;;;;;;;;3.00;3.00;;;;;;;;4763778;29;44914;-93
2023/08/29 11:10:22;;;;;;;;;1.00;1.00;;;;;;;;4767759;29;45398;-93
2023/08/29 11:13:06;;;;;;;;;1.67;1.67;;;;;;;;4767437;29;45496;-92
2023/08/29 11:15:46;;;;;;;;;3.00;3.00;;;;;;;;4770352;29;45684;-92
2023/08/29 11:18:24;;;;;;;;;2.00;2.00;;;;;;;;4769954;29;197832;-92
2023/08/29 11:20:49;;;;;;;;;2.00;2.00;;;;;;;;4781907;29;28619;-93
2023/08/29 11:23:14;;;;;;;;;2.00;2.00;;;;;;;;4777594;29;28346;-93
2023/08/29 11:25:39;;;;;;;;;2.33;2.33;;;;;;;;4776434;29;28489;-93
2023/08/29 11:28:05;;;;;;;;;2.33;2.33;;;;;;;;4758626;29;28547;-93
2023/08/29 11:30:33;;;;;;;;;2.00;2.00;;;;;;;;4753346;29;47058;-95
2023/08/29 11:32:59;;;;;;;;;1.00;1.00;;;;;;;;4750617;29;45432;-96
2023/08/29 11:35:24;;;;;;;;;2.00;2.00;;;;;;;;4771150;29;45898;-95
2023/08/29 11:37:49;;;;;;;;;1.00;1.00;;;;;;;;4767715;29;45406;-95
2023/08/29 11:40:23;;;;;;;;;0.67;0.67;;;;;;;;4765772;29;45421;-95
2023/08/29 11:42:49;;;;;;;;;1.33;1.33;;;;;;;;4763639;29;45316;-95
2023/08/29 11:45:15;;;;;;;;;0.67;0.67;;;;;;;;4758120;29;45555;-94
2023/08/29 11:47:40;;;;;;;;;1.00;1.00;;;;;;;;4778210;29;45493;-94
2023/08/29 11:50:05;;;;;;;;;1.00;1.00;;;;;;;;4780762;29;29192;-95
2023/08/29 11:52:31;;;;;;;;;1.00;1.00;;;;;;;;4763857;29;28593;-95
2023/08/29 11:54:57;;;;;;;;;1.00;1.00;;;;;;;;4757840;29;28493;-92
2023/08/29 11:57:23;;;;;;;;;2.00;2.00;;;;;;;;4759913;29;42724;-91
2023/08/29 11:59:50;;;;;;;;;1.00;1.00;;;;;;;;4774484;29;28365;-91
2023/08/29 12:02:17;;;;;;;;;1.00;1.00;;;;;;;;4803263;29;11654;-91
2023/08/29 12:04:45;;;;;;;;;1.00;1.00;;;;;;;;4798680;29;8826;-92
2023/08/29 12:07:11;;;;;;;;;1.00;1.00;;;;;;;;4801455;29;8896;-93
2023/08/29 12:09:38;;;;;;;;;0.00;0.00;;;;;;;;4777388;29;8813;-91
2023/08/29 12:12:04;;;;;;;;;1.00;1.00;;;;;;;;4792233;29;8892;-91
2023/08/29 12:14:29;;;;;;;;;0.75;0.75;;;;;;;;4785883;29;8834;-91
2023/08/29 12:16:54;;;;;;;;;1.00;1.00;;;;;;;;4791136;29;8822;-90
2023/08/29 12:19:19;;;;;;;;;0.33;0.33;;;;;;;;4794001;29;8824;-90
2023/08/29 12:21:54;;;;;;;;;0.67;0.67;;;;;;;;4798237;29;8830;-90
2023/08/29 12:24:20;;;;;;;;;0.25;0.25;;;;;;;;4801904;29;8835;-90
2023/08/29 12:26:45;;;;;;;;;0.67;0.67;;;;;;;;4775079;29;8850;-90
2023/08/29 12:29:11;;;;;;;;;1.00;1.00;;;;;;;;4784306;29;35699;-90
2023/08/29 12:31:36;;;;;;;;;0.33;0.33;;;;;;;;4777347;29;28606;-89
2023/08/29 12:34:01;;;;;;;;;1.00;1.00;;;;;;;;4770820;29;28540;-90
2023/08/29 12:39:08;;;;;;;;;0.00;0.00;;;;;;;;4830630;24;28459;-96
2023/08/29 12:41:35;;;;;;;;;0.00;0.00;;;;;;;;4742726;29;28770;-96
2023/08/29 12:44:00;;;;;;;;;1.00;1.00;;;;;;;;4742380;29;28487;-96
2023/08/29 12:49:04;;;;;;;;;0.00;0.00;;;;;;;;4682515;27;28222;-96
2023/08/29 12:51:32;;;;;;;;;1.33;1.33;;;;;;;;4779330;29;27903;-96
2023/08/29 12:53:59;;;;;;;;;1.00;1.00;;;;;;;;4783022;24;28170;-96
2023/08/29 12:56:24;;;;;;;;;0.00;0.00;;;;;;;;4795719;29;28911;-96
2023/08/29 12:58:53;;;;;;;;;1.00;1.00;;;;;;;;4784130;29;29832;-96
2023/08/29 13:01:18;;;;;;;;;0.00;0.00;;;;;;;;4772562;29;27981;-96
2023/08/29 13:03:43;;;;;;;;;0.67;0.67;;;;;;;;4774553;29;28352;-96
2023/08/29 13:06:08;;;;;;;;;2.00;1.00;;;;;;;;4771998;29;28507;-96
2023/08/29 13:08:37;;;;;;;;;0.00;0.00;;;;;;;;4758070;29;28786;-95
2023/08/29 13:11:29;;;;;;;;;1.00;1.00;;;;;;;;4769677;29;28623;-96
2023/08/29 13:14:12;;;;;;;;;1.00;1.00;;;;;;;;4739941;29;28505;-96
2023/08/29 13:16:38;;;;;;;;;1.00;1.00;;;;;;;;4769098;29;28231;-96
2023/08/29 13:19:03;;;;;;;;;1.00;1.00;;;;;;;;4772959;29;28652;-96
2023/08/29 13:21:28;;;;;;;;;0.00;0.00;;;;;;;;4780487;29;28241;-96
2023/08/29 13:23:54;;;;;;;;;1.00;1.00;;;;;;;;4764157;29;28807;-96
2023/08/29 13:26:19;;;;;;;;;0.33;0.33;;;;;;;;4986680;24;28068;-96
2023/08/29 13:28:44;;;;;;;;;1.00;1.00;;;;;;;;4762754;29;28692;-96
2023/08/29 13:36:17;;;;;;;;;1.00;1.00;;;;;;;;4875355;24;27988;-96
2023/08/29 13:41:34;;;;;;;;;1.00;1.00;;;;;;;;4756778;29;28413;-96
2023/08/29 13:44:05;;;;;;;;;1.00;1.00;;;;;;;;4752705;29;28512;-96
2023/08/29 13:46:30;;;;;;;;;2.00;2.00;;;;;;;;4751443;29;28535;-96
2023/08/29 13:48:58;;;;;;;;;1.00;1.00;;;;;;;;4758664;29;30658;-96
2023/08/29 13:51:23;;;;;;;;;2.00;2.00;;;;;;;;4751867;30;28518;-96
2023/08/29 13:53:50;;;;;;;;;1.00;1.00;;;;;;;;4760898;29;28450;-96
2023/08/29 13:56:15;;;;;;;;;0.67;0.67;;;;;;;;4761318;29;28596;-96
2023/08/29 13:59:20;;;;;;;;;;;;;;;;;;;;;
2023/08/29 14:01:45;;;;;;;;;2.00;2.00;;;;;;;;4765909;29;56594;-96
2023/08/29 14:04:10;;;;;;;;;1.00;1.00;;;;;;;;4769415;29;28532;-96
2023/08/29 14:06:36;;;;;;;;;1.00;1.00;;;;;;;;4752211;29;28521;-96
2023/08/29 14:09:01;;;;;;;;;1.00;1.00;;;;;;;;4769941;29;28440;-96
2023/08/29 14:11:26;;;;;;;;;1.67;1.67;;;;;;;;4744367;30;42227;-96
2023/08/29 14:13:52;;;;;;;;;1.00;1.00;;;;;;;;4767078;29;28525;-96
2023/08/29 14:16:17;;;;;;;;;0.33;0.33;;;;;;;;4771050;29;35817;-96
2023/08/29 14:18:43;;;;;;;;;1.00;1.00;;;;;;;;4530083;29;3628474;-96
2023/08/29 14:21:09;;;;;;;;;1.00;1.00;;;;;;;;4762344;29;227333;-96
2023/08/29 14:23:34;;;;;;;;;1.00;1.00;;;;;;;;4145560;29;12900436;-96
2023/08/29 14:26:00;;;;;;;;;0.33;0.33;;;;;;;;4212898;29;9471758;-96
2023/08/29 14:28:26;;;;;;;;;1.00;1.00;;;;;;;;4211359;29;7099324;-96
2023/08/29 14:30:51;;;;;;;;;1.00;1.00;;;;;;;;4353713;29;8041127;-96
2023/08/29 14:33:27;;;;;;;;;1.00;1.00;;;;;;;;4339153;29;14801089;-96
2023/08/29 14:35:55;;;;;;;;;0.67;0.67;;;;;;;;4569276;29;4333143;-96
2023/08/29 14:38:20;;;;;;;;;0.25;0.25;;;;;;;;4759367;29;76304;-96
2023/08/29 14:40:47;;;;;;;;;0.67;0.67;;;;;;;;4790579;29;28488;-96
2023/08/29 14:43:12;;;;;;;;;1.00;1.00;;;;;;;;4791849;29;28514;-96
2023/08/29 14:45:40;;;;;;;;;0.00;0.00;;;;;;;;4779394;29;28340;-96
2023/08/29 14:48:07;;;;;;;;;1.00;1.00;;;;;;;;4789249;29;28332;-96
2023/08/29 14:50:33;;;;;;;;;2.00;2.00;;;;;;;;4790933;29;28419;-96
2023/08/29 14:52:58;;;;;;;;;1.00;1.00;;;;;;;;4782036;29;29209;-96
2023/08/29 14:55:24;;;;;;;;;1.00;1.00;;;;;;;;4791394;29;28623;-96
2023/08/29 14:57:49;;;;;;;;;1.00;1.00;;;;;;;;4800250;29;28368;-96
2023/08/29 15:00:15;;;;;;;;;1.67;1.67;;;;;;;;4738699;29;1283562;-96
2023/08/29 15:02:41;;;;;;;;;0.00;0.00;;;;;;;;4682978;29;1603181;-96
2023/08/29 15:05:08;;;;;;;;;2.00;2.00;;;;;;;;4770215;29;28562;-96
2023/08/29 15:07:34;;;;;;;;;1.00;1.00;;;;;;;;4781221;29;28273;-96
2023/08/29 15:10:01;;;;;;;;;0.33;0.33;;;;;;;;4782863;29;28303;-96
2023/08/29 15:12:28;;;;;;;;;1.00;1.00;;;;;;;;4779577;29;28641;-96
2023/08/29 15:14:53;;;;;;;;;0.00;0.00;;;;;;;;4781898;29;28564;-96
2023/08/29 15:17:19;;;;;;;;;1.00;1.00;;;;;;;;4795841;29;28591;-96
2023/08/29 15:19:44;;;;;;;;;1.00;1.00;;;;;;;;4773555;29;28529;-96
2023/08/29 15:22:10;;;;;;;;;1.00;1.00;;;;;;;;4773323;29;29427;-96
2023/08/29 15:24:35;;;;;;;;;1.00;1.00;;;;;;;;4769134;29;29586;-96
2023/08/29 15:27:00;;;;;;;;;1.00;1.00;;;;;;;;4783053;29;28443;-96
2023/08/29 15:29:25;;;;;;;;;0.33;0.33;;;;;;;;4776976;29;28597;-96
2023/08/29 15:31:50;;;;;;;;;0.00;0.00;;;;;;;;4784068;29;29802;-96
2023/08/29 15:34:16;;;;;;;;;1.00;1.00;;;;;;;;4773937;29;28671;-96
2023/08/29 15:36:41;;;;;;;;;1.00;1.00;;;;;;;;4774296;29;28566;-96
2023/08/29 15:39:07;;;;;;;;;1.00;1.00;;;;;;;;4790754;29;28741;-96
2023/08/29 15:41:32;;;;;;;;;1.00;1.00;;;;;;;;4774239;29;29583;-96
2023/08/29 15:43:58;;;;;;;;;1.00;1.00;;;;;;;;4791225;29;28506;-96
2023/08/29 15:46:23;;;;;;;;;1.00;1.00;;;;;;;;4789654;29;28505;-96
2023/08/29 15:48:48;;;;;;;;;1.00;1.00;;;;;;;;4775285;29;28417;-96
2023/08/29 15:51:15;;;;;;;;;1.00;1.00;;;;;;;;4785249;29;28507;-96
2023/08/29 15:53:41;;;;;;;;;1.00;1.00;;;;;;;;4779519;29;28535;-96
2023/08/29 15:56:06;;;;;;;;;1.00;1.00;;;;;;;;4782104;29;28312;-96
2023/08/29 15:58:33;;;;;;;;;1.00;1.00;;;;;;;;4794684;29;28333;-96
2023/08/29 16:01:05;;;;;;;;;2.00;2.00;;;;;;;;4780991;29;30428;-96
2023/08/29 16:03:30;;;;;;;;;1.00;1.00;;;;;;;;4773078;29;28385;-96
2023/08/29 16:05:55;;;;;;;;;1.00;1.00;;;;;;;;4789030;29;28598;-96